Terminal Aerodrome Forecast
Issued by NWS

Home | Current Version | Previous Version | Text Only | Print | Product List | Glossary On
Versions: 1 2 3 4 5 6 7 8 9 10 11 12 13
000
FTUS46 KSEW 021100
TAFBFI
TAF
KBFI 021122Z 0212/0312 35006KT P6SM SCT050 OVC060
     FM021800 36012KT P6SM BKN050
     FM022100 36012KT P6SM SKC
     FM030400 02007KT P6SM SKC=

USA.gov is the U.S. government's official web portal to all federal, state and local government web resources and services.